createdAt,value
2023-02-03T00:35:42.943Z,96142.00
2023-02-03T00:36:43.195Z,96142.00
2023-02-03T00:37:42.939Z,96138.00
2023-02-03T00:38:43.008Z,96138.00
2023-02-03T00:39:42.959Z,96144.00
2023-02-03T00:40:42.979Z,96146.00
2023-02-03T00:41:42.993Z,96146.00
2023-02-03T00:42:42.999Z,96146.00
2023-02-03T00:43:42.962Z,96150.00
2023-02-03T00:44:42.969Z,96146.00
2023-02-03T00:45:43.096Z,96144.00
2023-02-03T00:46:42.956Z,96146.00
2023-02-03T00:47:42.996Z,96152.00
2023-02-03T00:48:42.948Z,96150.00
2023-02-03T00:49:42.962Z,96146.00
2023-02-03T00:50:42.962Z,96150.00
2023-02-03T00:51:42.939Z,96150.00
2023-02-03T00:52:42.957Z,96150.00
2023-02-03T00:53:42.948Z,96148.00
2023-02-03T00:55:42.938Z,96154.00
2023-02-03T00:56:42.935Z,96152.00
2023-02-03T00:57:42.948Z,96150.00
2023-02-03T00:58:42.976Z,96148.00
2023-02-03T00:59:43.001Z,96148.00
2023-02-03T01:00:43.011Z,96148.00
2023-02-03T01:01:43.003Z,96148.00
2023-02-03T01:02:43.158Z,96144.00
2023-02-03T01:03:43.027Z,96142.00
2023-02-03T01:04:43.055Z,96142.00
2023-02-03T01:05:43.080Z,96142.00
2023-02-03T01:06:43.078Z,96142.00
2023-02-03T01:07:43.119Z,96138.00
2023-02-03T01:08:43.130Z,96138.00
2023-02-03T01:09:43.133Z,96140.00
2023-02-03T01:10:43.133Z,96142.00
2023-02-03T01:11:43.209Z,96144.00
2023-02-03T01:12:43.201Z,96138.00
2023-02-03T01:13:43.237Z,96132.00
2023-02-03T01:14:43.313Z,96130.00
2023-02-03T01:15:43.333Z,96132.00
2023-02-03T01:16:43.442Z,96134.00
2023-02-03T01:17:43.449Z,96134.00
2023-02-03T01:18:43.515Z,96134.00
2023-02-03T01:19:43.548Z,96134.00
2023-02-03T01:20:43.573Z,96130.00
2023-02-03T01:21:43.660Z,96126.00
2023-02-03T01:22:43.752Z,96114.00
2023-02-03T01:23:43.784Z,96112.00
2023-02-03T01:24:43.844Z,96114.00
2023-02-03T01:25:43.895Z,96114.00
2023-02-03T01:26:43.969Z,96116.00
2023-02-03T01:27:44.046Z,96116.00
2023-02-03T01:28:44.088Z,96116.00
2023-02-03T01:29:44.192Z,96124.00
2023-02-03T01:30:44.279Z,96128.00
2023-02-03T01:31:44.405Z,96130.00
2023-02-03T01:32:44.352Z,96130.00
2023-02-03T01:33:44.388Z,96124.00
2023-02-03T01:34:44.482Z,96118.00
2023-02-03T01:35:44.537Z,96122.00
2023-02-03T01:36:44.598Z,96126.00
2023-02-03T01:37:44.659Z,96126.00
2023-02-03T01:38:44.724Z,96124.00
2023-02-03T01:39:44.773Z,96126.00
2023-02-03T01:40:44.850Z,96130.00
2023-02-03T01:41:44.885Z,96128.00
2023-02-03T01:42:44.938Z,96126.00
2023-02-03T01:43:44.997Z,96124.00
2023-02-03T01:44:45.057Z,96124.00
2023-02-03T01:45:45.117Z,96122.00
2023-02-03T01:46:45.189Z,96126.00
2023-02-03T01:47:45.249Z,96124.00
2023-02-03T01:48:45.265Z,96126.00
2023-02-03T01:49:45.375Z,96124.00
2023-02-03T01:50:45.411Z,96130.00
2023-02-03T01:51:45.441Z,96130.00
2023-02-03T01:52:45.516Z,96132.00
2023-02-03T01:53:45.581Z,96132.00
2023-02-03T01:54:45.651Z,96130.00
2023-02-03T01:55:45.694Z,96134.00
2023-02-03T01:56:45.719Z,96132.00
2023-02-03T01:57:45.770Z,96132.00
2023-02-03T01:58:45.820Z,96134.00
2023-02-03T01:59:45.914Z,96132.00
2023-02-03T02:00:45.933Z,96130.00
2023-02-03T02:01:46.015Z,96134.00
2023-02-03T02:02:46.138Z,96138.00
2023-02-03T02:03:46.090Z,96140.00
2023-02-03T02:04:46.178Z,96144.00
2023-02-03T02:05:46.200Z,96144.00
2023-02-03T02:06:46.288Z,96148.00
2023-02-03T02:07:46.345Z,96150.00
2023-02-03T04:35:50.683Z,96159.00
2023-02-03T04:36:50.655Z,96156.00
2023-02-03T04:37:50.716Z,96154.00
2023-02-03T04:38:50.721Z,96148.00
2023-02-03T04:39:50.740Z,96144.00
2023-02-03T04:40:50.741Z,96138.00
2023-02-03T04:41:50.763Z,96140.00
2023-02-03T04:42:50.778Z,96146.00
2023-02-03T04:43:50.779Z,96148.00
2023-02-03T04:44:50.776Z,96144.00
2023-02-03T04:45:50.830Z,96146.00
2023-02-03T04:46:50.800Z,96144.00
2023-02-03T04:47:53.983Z,96146.00
2023-02-03T04:48:50.823Z,96150.00
2023-02-03T04:49:50.815Z,96152.00
2023-02-03T04:50:50.804Z,96159.00
2023-02-03T04:51:50.777Z,96163.00
2023-02-03T04:52:50.806Z,96161.00
2023-02-03T04:53:50.768Z,96152.00
2023-02-03T04:54:50.811Z,96148.00
2023-02-03T04:55:50.754Z,96144.00
2023-02-03T04:56:50.787Z,96142.00
2023-02-03T04:57:50.739Z,96144.00
2023-02-03T04:58:50.742Z,96144.00
2023-02-03T04:59:50.764Z,96144.00
2023-02-03T05:00:50.760Z,96150.00
2023-02-03T05:01:50.754Z,96150.00
2023-02-03T05:02:50.751Z,96161.00
2023-02-03T05:03:50.698Z,96167.00
2023-02-03T05:04:50.706Z,96167.00
2023-02-03T05:05:50.667Z,96167.00
2023-02-03T05:06:50.687Z,96165.00
2023-02-03T05:07:50.648Z,96169.00
2023-02-03T05:08:50.701Z,96165.00
2023-02-03T05:09:50.664Z,96165.00
2023-02-03T05:10:50.655Z,96179.00
2023-02-03T05:11:50.653Z,96181.00
2023-02-03T05:12:50.612Z,96183.00
2023-02-03T05:13:50.619Z,96183.00
2023-02-03T05:14:50.632Z,96187.00
2023-02-03T05:15:50.607Z,96189.00
2023-02-03T05:16:50.719Z,96191.00
2023-02-03T05:17:50.603Z,96197.00
2023-02-03T05:18:50.575Z,96197.00
2023-02-03T05:19:50.621Z,96195.00
2023-02-03T05:20:50.564Z,96195.00
2023-02-03T05:21:50.550Z,96195.00
2023-02-03T05:22:50.566Z,96199.00
2023-02-03T05:23:50.578Z,96205.00
2023-02-03T05:24:50.538Z,96213.00
2023-02-03T05:25:50.538Z,96215.00
2023-02-03T05:26:50.523Z,96220.00
2023-02-03T05:27:50.593Z,96220.00
2023-02-03T05:28:51.731Z,96218.00
2023-02-03T05:29:50.558Z,96220.00
2023-02-03T05:30:50.550Z,96217.00
2023-02-03T05:31:50.642Z,96218.00
2023-02-03T05:32:50.485Z,96218.00
2023-02-03T05:33:50.491Z,96217.00
2023-02-03T05:34:50.497Z,96218.00
2023-02-03T05:35:50.509Z,96222.00
2023-02-03T05:36:50.455Z,96226.00
2023-02-03T05:37:50.513Z,96228.00
2023-02-03T05:38:50.477Z,96228.00
2023-02-03T05:39:50.445Z,96230.00
2023-02-03T05:40:50.434Z,96234.00
2023-02-03T05:41:50.444Z,96236.00
2023-02-03T05:42:50.407Z,96242.00
2023-02-03T05:43:50.410Z,96244.00
2023-02-03T05:44:50.430Z,96244.00
2023-02-03T05:45:50.447Z,96246.00
2023-02-03T05:46:50.372Z,96244.00
2023-02-03T05:47:50.374Z,96242.00
2023-02-03T05:48:50.395Z,96240.00
2023-02-03T05:49:50.397Z,96240.00
2023-02-03T05:50:50.366Z,96244.00
2023-02-03T05:51:50.383Z,96248.00
2023-02-03T05:52:50.364Z,96252.00
2023-02-03T05:53:50.360Z,96258.00
2023-02-03T05:54:50.324Z,96258.00
2023-02-03T05:55:50.339Z,96258.00
2023-02-03T05:56:50.340Z,96258.00
2023-02-03T05:57:50.282Z,96254.00
2023-02-03T05:58:50.319Z,96252.00
2023-02-03T05:59:50.309Z,96250.00
2023-02-03T06:00:57.309Z,96244.00
2023-02-03T06:01:50.296Z,96244.00
2023-02-03T06:02:50.273Z,96242.00
2023-02-03T06:03:50.513Z,96242.00
2023-02-03T06:04:50.336Z,96244.00
2023-02-03T06:05:50.246Z,96242.00
2023-02-03T06:06:50.221Z,96242.00
2023-02-03T06:07:50.223Z,96244.00
2023-02-03T06:08:50.226Z,96246.00
2023-02-03T06:09:51.233Z,96248.00
2023-02-03T06:10:50.189Z,96250.00
2023-02-03T06:11:50.228Z,96252.00
2023-02-03T06:12:50.226Z,96256.00
2023-02-03T06:13:50.193Z,96258.00
2023-02-03T06:14:50.221Z,96260.00
2023-02-03T06:15:50.198Z,96262.00
2023-02-03T06:16:50.278Z,96262.00
2023-02-03T06:17:50.168Z,96256.00
2023-02-03T06:18:50.200Z,96252.00
2023-02-03T06:19:50.147Z,96250.00
2023-02-03T06:20:50.141Z,96248.00
2023-02-03T06:21:50.115Z,96246.00
2023-02-03T06:22:50.124Z,96248.00
2023-02-03T06:23:50.168Z,96256.00
2023-02-03T06:24:50.292Z,96254.00
2023-02-03T06:25:50.108Z,96252.00
2023-02-03T06:27:50.105Z,96252.00
2023-02-03T06:28:50.509Z,96250.00
2023-02-03T06:29:50.115Z,96248.00
2023-02-03T06:30:50.212Z,96248.00
2023-02-03T06:31:50.306Z,96244.00
2023-02-03T06:32:50.296Z,96240.00
2023-02-03T06:33:50.072Z,96242.00
2023-02-03T06:34:50.070Z,96238.00
2023-02-03T06:35:50.048Z,96232.00
2023-02-03T06:36:50.089Z,96232.00
2023-02-03T06:37:50.044Z,96224.00
2023-02-03T06:38:50.029Z,96224.00
2023-02-03T06:39:50.035Z,96224.00
2023-02-03T06:40:50.254Z,96224.00
2023-02-03T06:41:50.159Z,96226.00
2023-02-03T06:42:50.129Z,96222.00
2023-02-03T06:45:57.380Z,96218.00
2023-02-03T06:46:50.255Z,96218.00
2023-02-03T06:47:50.226Z,96220.00
2023-02-03T06:48:50.241Z,96220.00
2023-02-03T06:49:50.247Z,96215.00
2023-02-03T06:50:50.223Z,96209.00
2023-02-03T06:51:50.237Z,96205.00
2023-02-03T06:52:50.227Z,96209.00
2023-02-03T06:53:50.201Z,96213.00
2023-02-03T06:54:50.218Z,96218.00
2023-02-03T06:55:50.190Z,96217.00
2023-02-03T06:56:50.196Z,96218.00
2023-02-03T06:57:50.184Z,96215.00
2023-02-03T06:58:50.242Z,96213.00
2023-02-03T06:59:50.163Z,96211.00
2023-02-03T07:00:50.254Z,96217.00
2023-02-03T07:01:50.232Z,96218.00
2023-02-03T07:02:50.216Z,96222.00
2023-02-03T07:03:50.131Z,96218.00
2023-02-03T07:04:50.130Z,96217.00
2023-02-03T07:05:50.119Z,96215.00
2023-02-03T07:06:50.107Z,96215.00
2023-02-03T07:07:50.127Z,96218.00
2023-02-03T07:08:50.094Z,96222.00
2023-02-03T07:09:51.064Z,96224.00
2023-02-03T07:10:50.114Z,96228.00
2023-02-03T07:11:50.083Z,96222.00
2023-02-03T07:12:50.073Z,96220.00
2023-02-03T07:13:50.058Z,96220.00
2023-02-03T07:14:50.083Z,96224.00
2023-02-03T07:15:50.097Z,96224.00
2023-02-03T07:16:50.045Z,96226.00
2023-02-03T07:17:50.052Z,96226.00
2023-02-03T07:18:50.113Z,96226.00
2023-02-03T07:19:50.170Z,96226.00
2023-02-03T07:20:50.227Z,96230.00
2023-02-03T07:21:50.265Z,96230.00
2023-02-03T07:22:50.314Z,96224.00
2023-02-03T07:23:50.403Z,96226.00
2023-02-03T07:24:50.445Z,96232.00
2023-02-03T07:25:50.542Z,96234.00
2023-02-03T07:26:50.530Z,96238.00
2023-02-03T07:27:50.653Z,96242.00
2023-02-03T07:28:50.643Z,96246.00
2023-02-03T07:29:50.698Z,96244.00
2023-02-03T07:30:50.842Z,96242.00
2023-02-03T07:31:50.965Z,96248.00
2023-02-03T07:32:50.889Z,96248.00
2023-02-03T07:33:50.912Z,96252.00
2023-02-03T07:34:50.998Z,96254.00
2023-02-03T07:35:51.028Z,96260.00
2023-02-03T07:36:51.048Z,96260.00
2023-02-03T07:37:51.118Z,96254.00
2023-02-03T07:38:51.153Z,96254.00
2023-02-03T07:39:51.230Z,96254.00
2023-02-03T07:40:51.603Z,96254.00
2023-02-03T07:41:51.294Z,96246.00
2023-02-03T07:42:51.323Z,96246.00
2023-02-03T07:43:51.339Z,96242.00
2023-02-03T07:44:51.359Z,96242.00
2023-02-03T07:45:51.400Z,96238.00
2023-02-03T07:46:51.520Z,96230.00
2023-02-03T07:47:51.412Z,96232.00
2023-02-03T07:48:51.436Z,96234.00
2023-02-03T07:49:51.443Z,96234.00
2023-02-03T07:50:51.566Z,96230.00
2023-02-03T07:51:51.572Z,96228.00
2023-02-03T07:52:51.604Z,96228.00
2023-02-03T07:53:51.592Z,96224.00
2023-02-03T07:54:51.614Z,96228.00
2023-02-03T07:55:51.624Z,96228.00
2023-02-03T07:56:51.661Z,96224.00
2023-02-03T07:57:51.694Z,96220.00
2023-02-03T07:58:51.762Z,96224.00
2023-02-03T07:59:51.799Z,96222.00
2023-02-03T08:00:51.853Z,96228.00
2023-02-03T08:01:51.925Z,96224.00
2023-02-03T08:02:51.942Z,96226.00
2023-02-03T08:03:55.070Z,96230.00
2023-02-03T08:04:52.042Z,96228.00
2023-02-03T08:05:51.973Z,96236.00
2023-02-03T08:06:51.961Z,96240.00
2023-02-03T08:07:51.940Z,96246.00
2023-02-03T08:08:51.936Z,96238.00
2023-02-03T08:09:51.914Z,96236.00
2023-02-03T08:10:52.088Z,96244.00
2023-02-03T08:11:51.963Z,96238.00
2023-02-03T08:12:51.919Z,96242.00
2023-02-03T08:13:51.917Z,96244.00
2023-02-03T08:14:51.870Z,96240.00
2023-02-03T08:15:51.913Z,96242.00
2023-02-03T08:16:51.859Z,96246.00
2023-02-03T08:17:51.903Z,96252.00
2023-02-03T08:18:51.860Z,96248.00
2023-02-03T08:19:51.832Z,96244.00
2023-02-03T08:20:52.096Z,96244.00
2023-02-03T08:21:51.839Z,96246.00
2023-02-03T08:22:51.825Z,96244.00
2023-02-03T08:23:51.832Z,96242.00
2023-02-03T08:24:51.822Z,96242.00
2023-02-03T08:25:52.032Z,96240.00
2023-02-03T08:26:51.773Z,96240.00
2023-02-03T08:27:51.839Z,96242.00
2023-02-03T08:28:51.802Z,96242.00
2023-02-03T08:29:51.832Z,96242.00
2023-02-03T08:30:52.149Z,96240.00
2023-02-03T08:31:51.842Z,96234.00
2023-02-03T08:32:51.775Z,96232.00
2023-02-03T08:33:51.781Z,96232.00
2023-02-03T08:34:51.766Z,96226.00
2023-02-03T08:35:51.732Z,96224.00
2023-02-03T08:36:51.799Z,96226.00
2023-02-03T08:37:51.746Z,96217.00
2023-02-03T08:38:51.707Z,96218.00
2023-02-03T08:39:51.701Z,96215.00
2023-02-03T08:40:51.788Z,96207.00
2023-02-03T08:41:51.709Z,96211.00
2023-02-03T08:42:51.708Z,96211.00
2023-02-03T08:43:51.675Z,96215.00
2023-02-03T08:44:51.645Z,96215.00
2023-02-03T08:45:51.708Z,96213.00
2023-02-03T08:46:51.649Z,96207.00
2023-02-03T08:47:51.694Z,96209.00
2023-02-03T08:53:51.746Z,96191.00
2023-02-03T08:54:51.807Z,96191.00
2023-02-03T08:55:51.847Z,96197.00
2023-02-03T08:56:51.866Z,96197.00
2023-02-03T08:57:51.892Z,96195.00
2023-02-03T08:58:52.294Z,96193.00
2023-02-03T08:59:51.963Z,96193.00
2023-02-03T09:00:52.204Z,96195.00
2023-02-03T09:04:53.158Z,96189.00
2023-02-03T09:15:52.336Z,96171.00
2023-02-03T09:16:52.452Z,96179.00
2023-02-03T09:17:52.404Z,96171.00
2023-02-03T09:18:52.442Z,96171.00
2023-02-03T09:19:52.439Z,96165.00
2023-02-03T09:20:52.495Z,96167.00
2023-02-03T09:21:52.613Z,96169.00
2023-02-03T09:22:52.505Z,96161.00
2023-02-03T09:24:52.490Z,96152.00
2023-02-03T09:25:52.549Z,96150.00
2023-02-03T09:32:52.551Z,96148.00
2023-02-03T09:33:52.577Z,96144.00
2023-02-03T09:34:52.589Z,96146.00
2023-02-03T09:35:52.591Z,96144.00
2023-02-03T09:36:52.653Z,96142.00
2023-02-03T09:37:52.569Z,96142.00
2023-02-03T09:38:52.592Z,96140.00
2023-02-03T09:39:52.575Z,96140.00
2023-02-03T09:40:59.987Z,96136.00
2023-02-03T09:41:53.603Z,96134.00
2023-02-03T09:42:52.552Z,96136.00
2023-02-03T09:43:52.551Z,96138.00
2023-02-03T09:44:52.535Z,96140.00
2023-02-03T09:45:52.567Z,96140.00
2023-02-03T09:47:52.513Z,96130.00
2023-02-03T09:48:52.492Z,96136.00
2023-02-03T09:51:52.644Z,96126.00
2023-02-03T09:52:52.485Z,96128.00
2023-02-03T09:53:52.608Z,96128.00
2023-02-03T09:54:52.469Z,96124.00
2023-02-03T09:55:52.469Z,96122.00
2023-02-03T09:56:52.534Z,96124.00
2023-02-03T09:57:52.432Z,96124.00
2023-02-03T09:58:53.128Z,96124.00
2023-02-03T09:59:52.420Z,96122.00
2023-02-03T10:00:52.557Z,96120.00
2023-02-03T10:01:52.625Z,96120.00
2023-02-03T10:02:52.486Z,96124.00
2023-02-03T10:03:52.445Z,96114.00
2023-02-03T10:04:52.454Z,96110.00
2023-02-03T10:05:52.848Z,96110.00
2023-02-03T10:06:52.586Z,96114.00
2023-02-03T10:07:52.569Z,96107.00
2023-02-03T10:08:52.619Z,96110.00
2023-02-03T10:09:52.638Z,96110.00
2023-02-03T10:10:52.615Z,96110.00
2023-02-03T10:11:52.705Z,96109.00
2023-02-03T10:12:52.662Z,96105.00
2023-02-03T10:13:52.899Z,96107.00
2023-02-03T10:14:52.746Z,96101.00
2023-02-03T10:15:52.841Z,96103.00
2023-02-03T10:17:53.683Z,96107.00
2023-02-03T10:18:52.968Z,96110.00
2023-02-03T10:19:53.301Z,96110.00
2023-02-03T10:20:53.061Z,96110.00
2023-02-03T10:21:53.074Z,96105.00
2023-02-03T10:22:53.115Z,96101.00
2023-02-03T10:23:53.397Z,96103.00
2023-02-03T10:24:53.212Z,96103.00
2023-02-03T10:25:55.202Z,96105.00
2023-02-03T10:27:53.324Z,96105.00
2023-02-03T10:28:53.293Z,96103.00
2023-02-03T10:29:53.233Z,96097.00
2023-02-03T10:30:53.410Z,96097.00
2023-02-03T10:31:53.304Z,96097.00
2023-02-03T10:32:53.257Z,96097.00
2023-02-03T10:33:53.199Z,96091.00
2023-02-03T10:34:53.256Z,96093.00
2023-02-03T10:35:53.247Z,96091.00
2023-02-03T10:36:53.220Z,96091.00
2023-02-03T10:37:53.182Z,96091.00
2023-02-03T10:39:53.239Z,96079.00
2023-02-03T10:42:53.647Z,96071.00
2023-02-03T10:43:53.220Z,96069.00
2023-02-03T10:44:53.139Z,96067.00
2023-02-03T10:45:53.325Z,96065.00
2023-02-03T10:46:53.122Z,96067.00
2023-02-03T10:47:53.186Z,96071.00
2023-02-03T10:48:53.144Z,96069.00
2023-02-03T10:49:53.098Z,96071.00
2023-02-03T10:50:53.128Z,96052.00
2023-02-03T10:51:53.173Z,96058.00
2023-02-03T10:52:53.162Z,96056.00
2023-02-03T10:53:53.096Z,96056.00
2023-02-03T10:54:53.071Z,96054.00
2023-02-03T10:55:53.065Z,96052.00
2023-02-03T10:56:53.041Z,96050.00
2023-02-03T10:57:53.194Z,96050.00
2023-02-03T10:58:53.091Z,96052.00
2023-02-03T10:59:53.065Z,96052.00
2023-02-03T11:00:53.076Z,96050.00
2023-02-03T11:01:53.066Z,96050.00
2023-02-03T11:02:53.195Z,96046.00
2023-02-03T11:03:53.231Z,96044.00
2023-02-03T11:04:53.338Z,96046.00
2023-02-03T11:05:53.187Z,96040.00
2023-02-03T11:06:52.976Z,96034.00
2023-02-03T11:07:53.177Z,96032.00
2023-02-03T11:08:52.960Z,96026.00
2023-02-03T11:09:52.965Z,96024.00
2023-02-03T11:10:53.043Z,96022.00
2023-02-03T11:11:52.951Z,96024.00
2023-02-03T11:12:52.944Z,96024.00
2023-02-03T11:13:52.931Z,96026.00
2023-02-03T11:14:52.932Z,96028.00
2023-02-03T11:16:52.955Z,96028.00
2023-02-03T11:17:53.169Z,96028.00
2023-02-03T11:19:52.975Z,96034.00
2023-02-03T11:20:53.036Z,96032.00
2023-02-03T11:21:53.146Z,96034.00
2023-02-03T11:22:53.162Z,96030.00
2023-02-03T11:23:53.185Z,96030.00
2023-02-03T11:24:53.243Z,96026.00
2023-02-03T11:25:53.318Z,96026.00
2023-02-03T11:26:53.364Z,96024.00
2023-02-03T11:27:53.467Z,96026.00
2023-02-03T11:28:53.632Z,96024.00
2023-02-03T11:29:53.541Z,96016.00
2023-02-03T11:30:53.596Z,96013.00
2023-02-03T11:31:53.712Z,96013.00
2023-02-03T11:32:53.688Z,96013.00
2023-02-03T11:33:53.739Z,96005.00
2023-02-03T11:34:53.778Z,96005.00
2023-02-03T11:35:53.848Z,96009.00
2023-02-03T11:36:53.889Z,96007.00
2023-02-03T11:37:54.662Z,96005.00
2023-02-03T11:38:53.982Z,96005.00
2023-02-03T11:39:53.948Z,96003.00
2023-02-03T11:40:54.006Z,95999.00
2023-02-03T11:41:54.000Z,95995.00
2023-02-03T11:42:54.184Z,95993.00
2023-02-03T11:43:54.068Z,95995.00
2023-02-03T11:44:54.061Z,95997.00
2023-02-03T11:45:54.136Z,95993.00
2023-02-03T11:46:54.150Z,95989.00
2023-02-03T11:47:54.218Z,95991.00
2023-02-03T11:48:54.260Z,95991.00
2023-02-03T11:49:54.319Z,95989.00
2023-02-03T11:50:54.371Z,95991.00
2023-02-03T11:51:54.461Z,95987.00
2023-02-03T11:52:54.707Z,95987.00
2023-02-03T11:53:57.326Z,95977.00
2023-02-03T11:54:54.504Z,95975.00
2023-02-03T11:55:54.483Z,95979.00
2023-02-03T11:56:54.491Z,95977.00
2023-02-03T11:57:54.504Z,95975.00
2023-02-03T11:58:54.465Z,95973.00
2023-02-03T11:59:54.485Z,95971.00
2023-02-03T12:00:54.492Z,95966.00
2023-02-03T12:01:54.460Z,95968.00
2023-02-03T12:02:54.554Z,95971.00
2023-02-03T12:03:54.665Z,95971.00
2023-02-03T12:04:54.497Z,95968.00
2023-02-03T12:05:54.406Z,95964.00
2023-02-03T12:06:54.417Z,95966.00
2023-02-03T12:07:54.414Z,95960.00
2023-02-03T12:08:54.407Z,95956.00
2023-02-03T12:09:54.403Z,95952.00
2023-02-03T12:10:54.378Z,95952.00
2023-02-03T12:11:54.385Z,95954.00
2023-02-03T12:12:54.404Z,95958.00
2023-02-03T12:13:54.696Z,95962.00
2023-02-03T12:14:54.370Z,95966.00
2023-02-03T12:15:54.473Z,95964.00
2023-02-03T12:16:54.346Z,95958.00
2023-02-03T12:17:54.353Z,95962.00
2023-02-03T12:18:54.361Z,95958.00
2023-02-03T12:19:54.323Z,95950.00
2023-02-03T12:20:54.300Z,95952.00
2023-02-03T12:21:54.306Z,95948.00
2023-02-03T12:22:54.322Z,95950.00
2023-02-03T12:23:54.321Z,95952.00
2023-02-03T12:24:54.317Z,95952.00
2023-02-03T12:25:54.259Z,95952.00
2023-02-03T12:26:54.286Z,95954.00
2023-02-03T12:27:54.329Z,95952.00
2023-02-03T12:28:54.727Z,95958.00
2023-02-03T12:29:54.270Z,95956.00
2023-02-03T12:30:54.322Z,95952.00
2023-02-03T12:31:54.304Z,95956.00
2023-02-03T12:32:54.253Z,95956.00
2023-02-03T12:33:54.692Z,95956.00
2023-02-03T12:34:54.235Z,95952.00
2023-02-03T12:35:54.212Z,95952.00
2023-02-03T12:36:54.193Z,95946.00
2023-02-03T12:37:54.213Z,95952.00
2023-02-03T12:38:54.707Z,95948.00
2023-02-03T12:39:54.211Z,95944.00
2023-02-03T12:40:54.208Z,95938.00
2023-02-03T12:41:54.163Z,95938.00
2023-02-03T12:42:54.160Z,95940.00
2023-02-03T12:43:54.166Z,95934.00
2023-02-03T12:44:54.167Z,95932.00
2023-02-03T12:45:54.260Z,95936.00
2023-02-03T12:46:54.247Z,95936.00
2023-02-03T12:47:54.359Z,95938.00
2023-02-03T12:48:54.377Z,95936.00
2023-02-03T12:49:54.396Z,95932.00
2023-02-03T12:50:54.434Z,95930.00
2023-02-03T12:51:54.456Z,95928.00
2023-02-03T12:52:54.480Z,95922.00
2023-02-03T12:53:54.489Z,95915.00
2023-02-03T12:54:54.519Z,95913.00
2023-02-03T12:55:54.585Z,95909.00
2023-02-03T12:56:54.615Z,95909.00
2023-02-03T12:57:54.675Z,95915.00
2023-02-03T12:58:54.698Z,95922.00
2023-02-03T12:59:54.702Z,95924.00
2023-02-03T13:00:54.795Z,95922.00
2023-02-03T13:01:54.822Z,95907.00
2023-02-03T13:02:54.832Z,95901.00
2023-02-03T13:03:54.869Z,95901.00
2023-02-03T13:04:57.056Z,95905.00
2023-02-03T13:05:54.982Z,95907.00
2023-02-03T13:06:55.021Z,95901.00
2023-02-03T13:07:55.092Z,95897.00
2023-02-03T13:08:55.155Z,95895.00
2023-02-03T13:09:55.203Z,95893.00
2023-02-03T13:10:55.274Z,95893.00
2023-02-03T13:11:55.328Z,95895.00
2023-02-03T13:12:55.397Z,95897.00
2023-02-03T13:13:55.438Z,95895.00
2023-02-03T13:14:55.558Z,95893.00
2023-02-03T13:15:55.558Z,95887.00
2023-02-03T13:16:55.706Z,95887.00
2023-02-03T13:17:55.717Z,95891.00
2023-02-03T13:18:55.746Z,95891.00
2023-02-03T13:19:55.857Z,95891.00
2023-02-03T13:20:55.859Z,95891.00
2023-02-03T13:21:55.934Z,95883.00
2023-02-03T13:22:56.023Z,95881.00
2023-02-03T13:23:56.060Z,95871.00
2023-02-03T13:24:56.129Z,95869.00
2023-02-03T13:25:56.187Z,95869.00
2023-02-03T13:26:56.263Z,95869.00
2023-02-03T13:27:56.295Z,95867.00
2023-02-03T13:28:56.331Z,95863.00
2023-02-03T13:36:56.784Z,95836.00
2023-02-03T17:53:30.174Z,95705.00
2023-02-03T19:36:32.440Z,95844.00
2023-02-03T19:37:32.463Z,95842.00
2023-02-03T19:38:32.524Z,95840.00
2023-02-03T19:39:32.578Z,95832.00
2023-02-03T19:40:32.606Z,95836.00
2023-02-03T19:41:33.261Z,95838.00
2023-02-03T19:42:32.662Z,95846.00
2023-02-03T19:43:32.732Z,95850.00
2023-02-03T19:44:32.765Z,95846.00
2023-02-03T19:45:32.830Z,95852.00
2023-02-03T19:46:32.919Z,95854.00
2023-02-03T19:47:33.087Z,95852.00
2023-02-03T19:48:33.301Z,95852.00
2023-02-03T19:49:33.165Z,95858.00
2023-02-03T19:50:32.956Z,95860.00
2023-02-03T19:51:33.017Z,95863.00
2023-02-03T19:52:33.056Z,95860.00
2023-02-03T19:53:33.072Z,95867.00
2023-02-03T19:54:33.099Z,95863.00
2023-02-03T19:55:33.152Z,95863.00
2023-02-03T19:56:33.181Z,95863.00
2023-02-03T19:57:33.212Z,95860.00
2023-02-03T19:58:33.269Z,95856.00
2023-02-03T19:59:33.301Z,95852.00
2023-02-03T20:00:33.349Z,95858.00
2023-02-03T20:01:33.381Z,95861.00
2023-02-03T20:02:33.471Z,95867.00
2023-02-03T20:03:33.465Z,95860.00
2023-02-03T20:04:33.523Z,95867.00
2023-02-03T20:05:33.618Z,95867.00
2023-02-03T20:06:33.638Z,95879.00
2023-02-03T20:07:33.661Z,95877.00
2023-02-03T20:08:33.709Z,95877.00
2023-02-03T20:09:33.762Z,95877.00
2023-02-03T20:10:33.790Z,95867.00
2023-02-03T20:11:33.864Z,95861.00
2023-02-03T20:12:33.896Z,95858.00
2023-02-03T20:13:33.928Z,95860.00
2023-02-03T20:14:34.014Z,95860.00
2023-02-03T20:15:34.050Z,95858.00
2023-02-03T20:16:34.157Z,95854.00
2023-02-03T20:17:34.144Z,95858.00
2023-02-03T20:18:34.190Z,95856.00
2023-02-03T20:19:34.232Z,95854.00
2023-02-03T20:20:34.307Z,95861.00
2023-02-03T20:21:34.342Z,95869.00
2023-02-03T20:22:34.379Z,95869.00
2023-02-03T20:23:34.444Z,95869.00
2023-02-03T20:24:34.464Z,95867.00
2023-02-03T20:25:34.535Z,95869.00
2023-02-03T20:26:34.571Z,95867.00
2023-02-03T20:27:34.644Z,95865.00
2023-02-03T20:28:34.689Z,95865.00
2023-02-03T20:29:34.738Z,95869.00
2023-02-03T20:30:34.809Z,95869.00
2023-02-03T20:31:34.961Z,95871.00
2023-02-03T20:32:34.991Z,95869.00
2023-02-03T20:33:34.966Z,95873.00
2023-02-03T20:34:34.980Z,95867.00
2023-02-03T20:35:35.051Z,95869.00
2023-02-03T20:36:35.103Z,95869.00
2023-02-03T20:37:35.129Z,95871.00
2023-02-03T20:38:35.208Z,95873.00
2023-02-03T20:39:35.250Z,95879.00
2023-02-03T20:40:35.407Z,95881.00
2023-02-03T20:41:35.352Z,95879.00
2023-02-03T20:42:35.410Z,95875.00
2023-02-03T20:43:35.489Z,95867.00
2023-02-03T20:44:35.496Z,95869.00
2023-02-03T20:45:35.566Z,95865.00
2023-02-03T20:46:35.689Z,95867.00
2023-02-03T20:47:35.671Z,95877.00
2023-02-03T20:48:35.711Z,95887.00
2023-02-03T20:49:35.757Z,95889.00
2023-02-03T20:50:42.318Z,95893.00
2023-02-03T20:52:35.775Z,95893.00
2023-02-03T20:53:35.810Z,95887.00
2023-02-03T20:54:35.794Z,95879.00
2023-02-03T20:55:35.777Z,95881.00
2023-02-03T20:56:35.767Z,95887.00
2023-02-03T20:57:35.776Z,95881.00
2023-02-03T20:58:35.766Z,95873.00
2023-02-03T20:59:35.770Z,95879.00
2023-02-03T21:00:35.788Z,95879.00
2023-02-03T21:01:35.762Z,95883.00
2023-02-03T21:02:35.787Z,95887.00
2023-02-03T21:03:35.867Z,95887.00
2023-02-03T21:04:35.962Z,95887.00
2023-02-03T21:05:35.952Z,95887.00
2023-02-03T21:06:36.027Z,95879.00
2023-02-03T21:07:36.069Z,95881.00
2023-02-03T21:08:36.134Z,95889.00
2023-02-03T21:09:36.136Z,95887.00
2023-02-03T21:10:36.217Z,95893.00
2023-02-03T21:11:36.269Z,95889.00
2023-02-03T21:12:36.303Z,95893.00
2023-02-03T21:13:36.347Z,95893.00
2023-02-03T21:14:36.382Z,95885.00
2023-02-03T21:15:36.428Z,95899.00
2023-02-03T21:16:36.526Z,95893.00
2023-02-03T23:13:42.380Z,95885.00
2023-02-03T23:14:42.453Z,95875.00
2023-02-03T23:15:42.472Z,95879.00
2023-02-03T23:16:42.561Z,95885.00
2023-02-03T23:17:42.578Z,95893.00
2023-02-03T23:18:42.654Z,95889.00
2023-02-03T23:19:42.705Z,95879.00
2023-02-03T23:20:42.754Z,95873.00
2023-02-03T23:21:42.837Z,95885.00
2023-02-03T23:22:42.912Z,95891.00
2023-02-03T23:23:42.935Z,95885.00
2023-02-03T23:24:43.025Z,95883.00
2023-02-03T23:25:43.025Z,95879.00
2023-02-03T23:26:43.132Z,95885.00
2023-02-03T23:27:43.285Z,95891.00